sensor_id;sensor_type;location;lat;lon;timestamp;P1;durP1;ratioP1;P2;durP2;ratioP2
42134;SDS011;28312;43.460;11.810;2024-03-08T00:02:18;6.88;;;5.18;;
42134;SDS011;28312;43.460;11.810;2024-03-08T00:06:22;7.78;;;6.20;;
42134;SDS011;28312;43.460;11.810;2024-03-08T00:10:25;6.60;;;5.40;;
42134;SDS011;28312;43.460;11.810;2024-03-08T00:14:32;7.63;;;5.60;;
42134;SDS011;28312;43.460;11.810;2024-03-08T00:18:36;11.82;;;6.20;;
42134;SDS011;28312;43.460;11.810;2024-03-08T00:22:40;7.57;;;4.30;;
42134;SDS011;28312;43.460;11.810;2024-03-08T00:26:44;8.15;;;6.32;;
42134;SDS011;28312;43.460;11.810;2024-03-08T00:30:47;7.38;;;5.25;;
42134;SDS011;28312;43.460;11.810;2024-03-08T00:34:51;8.30;;;4.90;;
42134;SDS011;28312;43.460;11.810;2024-03-08T00:38:54;7.07;;;5.25;;
42134;SDS011;28312;43.460;11.810;2024-03-08T00:42:58;4.43;;;2.90;;
42134;SDS011;28312;43.460;11.810;2024-03-08T00:47:01;9.13;;;5.70;;
42134;SDS011;28312;43.460;11.810;2024-03-08T00:51:06;5.18;;;4.03;;
42134;SDS011;28312;43.460;11.810;2024-03-08T00:55:10;8.55;;;5.50;;
42134;SDS011;28312;43.460;11.810;2024-03-08T00:59:14;6.13;;;4.35;;
42134;SDS011;28312;43.460;11.810;2024-03-08T01:03:17;5.80;;;4.60;;
42134;SDS011;28312;43.460;11.810;2024-03-08T01:07:21;6.40;;;4.82;;
42134;SDS011;28312;43.460;11.810;2024-03-08T01:11:24;6.82;;;4.60;;
42134;SDS011;28312;43.460;11.810;2024-03-08T01:15:28;7.65;;;4.13;;
42134;SDS011;28312;43.460;11.810;2024-03-08T01:19:33;8.07;;;5.28;;
42134;SDS011;28312;43.460;11.810;2024-03-08T01:23:37;8.20;;;5.28;;
42134;SDS011;28312;43.460;11.810;2024-03-08T01:27:40;3.97;;;2.85;;
42134;SDS011;28312;43.460;11.810;2024-03-08T01:31:44;6.03;;;4.22;;
42134;SDS011;28312;43.460;11.810;2024-03-08T01:35:48;7.53;;;4.43;;
42134;SDS011;28312;43.460;11.810;2024-03-08T01:39:52;3.90;;;2.63;;
42134;SDS011;28312;43.460;11.810;2024-03-08T01:43:55;5.72;;;4.30;;
42134;SDS011;28312;43.460;11.810;2024-03-08T01:48:00;4.68;;;2.63;;
42134;SDS011;28312;43.460;11.810;2024-03-08T01:52:04;7.93;;;3.17;;
42134;SDS011;28312;43.460;11.810;2024-03-08T01:56:09;6.93;;;4.13;;
42134;SDS011;28312;43.460;11.810;2024-03-08T02:00:12;6.03;;;4.05;;
42134;SDS011;28312;43.460;11.810;2024-03-08T02:04:19;5.63;;;4.35;;
42134;SDS011;28312;43.460;11.810;2024-03-08T02:08:24;7.50;;;4.35;;
42134;SDS011;28312;43.460;11.810;2024-03-08T02:12:28;7.75;;;4.63;;
42134;SDS011;28312;43.460;11.810;2024-03-08T02:16:31;6.20;;;4.40;;
42134;SDS011;28312;43.460;11.810;2024-03-08T02:20:36;6.07;;;4.18;;
42134;SDS011;28312;43.460;11.810;2024-03-08T02:24:39;7.70;;;4.55;;
42134;SDS011;28312;43.460;11.810;2024-03-08T02:28:44;6.78;;;4.03;;
42134;SDS011;28312;43.460;11.810;2024-03-08T02:32:48;3.72;;;2.58;;
42134;SDS011;28312;43.460;11.810;2024-03-08T02:36:52;5.43;;;3.70;;
42134;SDS011;28312;43.460;11.810;2024-03-08T02:40:55;7.72;;;4.10;;
42134;SDS011;28312;43.460;11.810;2024-03-08T02:44:59;7.38;;;4.15;;
42134;SDS011;28312;43.460;11.810;2024-03-08T02:49:02;3.90;;;2.63;;
42134;SDS011;28312;43.460;11.810;2024-03-08T02:53:06;6.07;;;3.88;;
42134;SDS011;28312;43.460;11.810;2024-03-08T02:57:10;9.00;;;4.22;;
42134;SDS011;28312;43.460;11.810;2024-03-08T03:01:15;4.55;;;3.03;;
42134;SDS011;28312;43.460;11.810;2024-03-08T03:05:21;6.72;;;4.95;;
42134;SDS011;28312;43.460;11.810;2024-03-08T03:09:24;5.55;;;3.40;;
42134;SDS011;28312;43.460;11.810;2024-03-08T03:13:30;7.30;;;4.50;;
42134;SDS011;28312;43.460;11.810;2024-03-08T03:17:34;5.88;;;4.22;;
42134;SDS011;28312;43.460;11.810;2024-03-08T03:21:38;6.53;;;3.90;;
42134;SDS011;28312;43.460;11.810;2024-03-08T03:25:42;7.57;;;4.85;;
42134;SDS011;28312;43.460;11.810;2024-03-08T03:29:45;8.48;;;4.65;;
42134;SDS011;28312;43.460;11.810;2024-03-08T03:33:49;8.70;;;4.90;;
42134;SDS011;28312;43.460;11.810;2024-03-08T03:37:54;10.65;;;6.63;;
42134;SDS011;28312;43.460;11.810;2024-03-08T03:42:12;10.32;;;5.28;;
42134;SDS011;28312;43.460;11.810;2024-03-08T03:46:18;12.15;;;7.35;;
42134;SDS011;28312;43.460;11.810;2024-03-08T03:50:22;6.20;;;4.63;;
42134;SDS011;28312;43.460;11.810;2024-03-08T03:54:26;8.23;;;6.03;;
42134;SDS011;28312;43.460;11.810;2024-03-08T03:58:29;9.32;;;6.57;;
42134;SDS011;28312;43.460;11.810;2024-03-08T04:02:33;7.70;;;5.72;;
42134;SDS011;28312;43.460;11.810;2024-03-08T04:06:37;8.80;;;6.00;;
42134;SDS011;28312;43.460;11.810;2024-03-08T04:10:40;10.18;;;5.20;;
42134;SDS011;28312;43.460;11.810;2024-03-08T04:14:44;8.38;;;5.72;;
42134;SDS011;28312;43.460;11.810;2024-03-08T04:18:48;12.05;;;7.53;;
42134;SDS011;28312;43.460;11.810;2024-03-08T04:22:52;9.30;;;6.82;;
42134;SDS011;28312;43.460;11.810;2024-03-08T04:26:56;10.07;;;6.63;;
42134;SDS011;28312;43.460;11.810;2024-03-08T04:31:01;9.52;;;5.90;;
42134;SDS011;28312;43.460;11.810;2024-03-08T04:35:06;6.90;;;4.78;;
42134;SDS011;28312;43.460;11.810;2024-03-08T04:39:10;10.38;;;6.00;;
42134;SDS011;28312;43.460;11.810;2024-03-08T04:43:15;9.98;;;6.65;;
42134;SDS011;28312;43.460;11.810;2024-03-08T04:47:21;8.68;;;5.78;;
42134;SDS011;28312;43.460;11.810;2024-03-08T04:51:25;8.65;;;6.00;;
42134;SDS011;28312;43.460;11.810;2024-03-08T04:55:28;8.32;;;6.22;;
42134;SDS011;28312;43.460;11.810;2024-03-08T04:59:32;7.60;;;5.53;;
42134;SDS011;28312;43.460;11.810;2024-03-08T05:03:36;24.85;;;8.18;;
42134;SDS011;28312;43.460;11.810;2024-03-08T05:07:39;16.75;;;7.25;;
42134;SDS011;28312;43.460;11.810;2024-03-08T05:11:43;16.48;;;9.82;;
42134;SDS011;28312;43.460;11.810;2024-03-08T05:15:48;11.50;;;8.43;;
42134;SDS011;28312;43.460;11.810;2024-03-08T05:19:53;25.70;;;10.35;;
42134;SDS011;28312;43.460;11.810;2024-03-08T05:23:56;31.83;;;8.73;;
42134;SDS011;28312;43.460;11.810;2024-03-08T05:28:00;12.90;;;9.07;;
42134;SDS011;28312;43.460;11.810;2024-03-08T05:32:05;35.63;;;11.55;;
42134;SDS011;28312;43.460;11.810;2024-03-08T05:36:09;15.27;;;8.88;;
42134;SDS011;28312;43.460;11.810;2024-03-08T05:40:14;13.98;;;7.82;;
42134;SDS011;28312;43.460;11.810;2024-03-08T05:44:21;8.77;;;7.18;;
42134;SDS011;28312;43.460;11.810;2024-03-08T05:48:25;7.72;;;4.93;;
42134;SDS011;28312;43.460;11.810;2024-03-08T05:52:29;14.45;;;7.50;;
42134;SDS011;28312;43.460;11.810;2024-03-08T05:56:32;8.63;;;7.03;;
42134;SDS011;28312;43.460;11.810;2024-03-08T06:00:36;9.13;;;7.35;;
42134;SDS011;28312;43.460;11.810;2024-03-08T06:04:40;23.73;;;8.23;;
42134;SDS011;28312;43.460;11.810;2024-03-08T06:08:45;12.18;;;7.40;;
42134;SDS011;28312;43.460;11.810;2024-03-08T06:12:51;8.55;;;5.93;;
42134;SDS011;28312;43.460;11.810;2024-03-08T06:16:55;16.05;;;8.30;;
42134;SDS011;28312;43.460;11.810;2024-03-08T06:20:59;27.48;;;10.23;;
42134;SDS011;28312;43.460;11.810;2024-03-08T06:25:03;10.23;;;7.88;;
42134;SDS011;28312;43.460;11.810;2024-03-08T06:29:08;13.18;;;10.32;;
42134;SDS011;28312;43.460;11.810;2024-03-08T06:33:11;17.42;;;10.20;;
42134;SDS011;28312;43.460;11.810;2024-03-08T06:37:15;10.93;;;7.35;;
42134;SDS011;28312;43.460;11.810;2024-03-08T06:41:19;16.65;;;9.13;;
42134;SDS011;28312;43.460;11.810;2024-03-08T06:45:23;10.43;;;7.47;;
42134;SDS011;28312;43.460;11.810;2024-03-08T06:49:28;30.77;;;8.40;;
42134;SDS011;28312;43.460;11.810;2024-03-08T06:53:32;28.27;;;9.93;;
42134;SDS011;28312;43.460;11.810;2024-03-08T06:57:38;29.27;;;8.80;;
42134;SDS011;28312;43.460;11.810;2024-03-08T07:01:45;36.28;;;9.45;;
42134;SDS011;28312;43.460;11.810;2024-03-08T07:05:49;11.70;;;8.60;;
42134;SDS011;28312;43.460;11.810;2024-03-08T07:09:52;34.08;;;11.63;;
42134;SDS011;28312;43.460;11.810;2024-03-08T07:13:58;46.95;;;10.52;;
42134;SDS011;28312;43.460;11.810;2024-03-08T07:18:05;54.42;;;10.70;;
42134;SDS011;28312;43.460;11.810;2024-03-08T07:22:11;32.20;;;15.57;;
42134;SDS011;28312;43.460;11.810;2024-03-08T07:26:15;21.25;;;9.05;;
42134;SDS011;28312;43.460;11.810;2024-03-08T07:30:28;35.30;;;10.13;;
42134;SDS011;28312;43.460;11.810;2024-03-08T07:34:49;10.55;;;7.80;;
42134;SDS011;28312;43.460;11.810;2024-03-08T07:38:56;15.65;;;8.10;;
42134;SDS011;28312;43.460;11.810;2024-03-08T07:43:00;10.27;;;5.50;;
42134;SDS011;28312;43.460;11.810;2024-03-08T07:47:03;12.95;;;6.78;;
42134;SDS011;28312;43.460;11.810;2024-03-08T07:51:08;9.77;;;7.18;;
42134;SDS011;28312;43.460;11.810;2024-03-08T07:55:15;22.92;;;7.55;;
42134;SDS011;28312;43.460;11.810;2024-03-08T07:59:19;18.40;;;8.23;;
42134;SDS011;28312;43.460;11.810;2024-03-08T08:03:23;14.15;;;9.75;;
42134;SDS011;28312;43.460;11.810;2024-03-08T08:07:28;22.23;;;7.35;;
42134;SDS011;28312;43.460;11.810;2024-03-08T08:11:32;37.47;;;9.82;;
42134;SDS011;28312;43.460;11.810;2024-03-08T08:15:35;17.58;;;9.90;;
42134;SDS011;28312;43.460;11.810;2024-03-08T08:19:40;32.47;;;12.35;;
42134;SDS011;28312;43.460;11.810;2024-03-08T08:23:44;20.35;;;13.10;;
42134;SDS011;28312;43.460;11.810;2024-03-08T08:27:49;38.00;;;15.60;;
42134;SDS011;28312;43.460;11.810;2024-03-08T08:31:52;28.70;;;14.13;;
42134;SDS011;28312;43.460;11.810;2024-03-08T08:35:57;20.10;;;13.40;;
42134;SDS011;28312;43.460;11.810;2024-03-08T08:40:01;17.98;;;10.23;;
42134;SDS011;28312;43.460;11.810;2024-03-08T08:44:08;14.95;;;10.45;;
42134;SDS011;28312;43.460;11.810;2024-03-08T08:48:18;17.20;;;11.15;;
42134;SDS011;28312;43.460;11.810;2024-03-08T08:52:22;23.75;;;9.95;;
42134;SDS011;28312;43.460;11.810;2024-03-08T08:56:26;18.38;;;13.50;;
42134;SDS011;28312;43.460;11.810;2024-03-08T09:00:29;20.75;;;13.98;;
42134;SDS011;28312;43.460;11.810;2024-03-08T09:04:35;14.98;;;10.68;;
42134;SDS011;28312;43.460;11.810;2024-03-08T09:08:39;20.15;;;13.82;;
42134;SDS011;28312;43.460;11.810;2024-03-08T09:12:43;16.17;;;10.27;;
42134;SDS011;28312;43.460;11.810;2024-03-08T09:16:47;16.92;;;9.88;;
42134;SDS011;28312;43.460;11.810;2024-03-08T09:20:50;12.93;;;8.57;;
42134;SDS011;28312;43.460;11.810;2024-03-08T09:24:56;12.82;;;9.25;;
42134;SDS011;28312;43.460;11.810;2024-03-08T09:29:00;13.93;;;9.95;;
42134;SDS011;28312;43.460;11.810;2024-03-08T09:33:04;15.38;;;10.95;;
42134;SDS011;28312;43.460;11.810;2024-03-08T09:37:08;11.75;;;8.57;;
42134;SDS011;28312;43.460;11.810;2024-03-08T09:41:12;10.18;;;7.63;;
42134;SDS011;28312;43.460;11.810;2024-03-08T09:45:16;8.98;;;7.30;;
42134;SDS011;28312;43.460;11.810;2024-03-08T09:49:20;11.95;;;8.68;;
42134;SDS011;28312;43.460;11.810;2024-03-08T09:53:24;13.32;;;9.30;;
42134;SDS011;28312;43.460;11.810;2024-03-08T09:57:27;13.32;;;10.05;;
42134;SDS011;28312;43.460;11.810;2024-03-08T10:01:32;9.60;;;7.80;;
42134;SDS011;28312;43.460;11.810;2024-03-08T10:05:36;8.65;;;7.10;;
42134;SDS011;28312;43.460;11.810;2024-03-08T10:09:40;9.48;;;7.10;;
42134;SDS011;28312;43.460;11.810;2024-03-08T10:13:50;9.23;;;7.03;;
42134;SDS011;28312;43.460;11.810;2024-03-08T10:17:55;9.50;;;7.45;;
42134;SDS011;28312;43.460;11.810;2024-03-08T10:22:00;10.63;;;6.82;;
42134;SDS011;28312;43.460;11.810;2024-03-08T10:26:11;10.27;;;6.97;;
42134;SDS011;28312;43.460;11.810;2024-03-08T10:30:18;8.40;;;6.78;;
42134;SDS011;28312;43.460;11.810;2024-03-08T10:34:23;7.43;;;5.32;;
42134;SDS011;28312;43.460;11.810;2024-03-08T10:38:28;8.57;;;5.38;;
42134;SDS011;28312;43.460;11.810;2024-03-08T10:42:40;8.95;;;6.65;;
42134;SDS011;28312;43.460;11.810;2024-03-08T10:47:01;6.53;;;5.05;;
42134;SDS011;28312;43.460;11.810;2024-03-08T10:51:13;6.70;;;4.47;;
42134;SDS011;28312;43.460;11.810;2024-03-08T10:55:18;8.27;;;5.57;;
42134;SDS011;28312;43.460;11.810;2024-03-08T10:59:25;5.72;;;4.65;;
42134;SDS011;28312;43.460;11.810;2024-03-08T11:07:47;5.25;;;3.97;;
42134;SDS011;28312;43.460;11.810;2024-03-08T11:12:18;6.10;;;3.88;;
42134;SDS011;28312;43.460;11.810;2024-03-08T11:16:39;5.40;;;3.38;;
42134;SDS011;28312;43.460;11.810;2024-03-08T11:20:47;4.38;;;3.17;;
42134;SDS011;28312;43.460;11.810;2024-03-08T11:24:53;5.07;;;3.63;;
42134;SDS011;28312;43.460;11.810;2024-03-08T11:33:40;4.60;;;2.60;;
42134;SDS011;28312;43.460;11.810;2024-03-08T11:37:46;4.95;;;2.33;;
42134;SDS011;28312;43.460;11.810;2024-03-08T11:41:51;4.50;;;2.88;;
42134;SDS011;28312;43.460;11.810;2024-03-08T11:46:07;5.38;;;3.05;;
42134;SDS011;28312;43.460;11.810;2024-03-08T11:50:15;2.83;;;1.88;;
42134;SDS011;28312;43.460;11.810;2024-03-08T11:54:22;4.43;;;2.35;;
42134;SDS011;28312;43.460;11.810;2024-03-08T11:58:27;3.13;;;2.05;;
42134;SDS011;28312;43.460;11.810;2024-03-08T12:02:31;2.80;;;2.05;;
42134;SDS011;28312;43.460;11.810;2024-03-08T12:06:38;3.45;;;2.28;;
42134;SDS011;28312;43.460;11.810;2024-03-08T12:10:43;2.97;;;1.88;;
42134;SDS011;28312;43.460;11.810;2024-03-08T12:14:47;2.97;;;1.95;;
42134;SDS011;28312;43.460;11.810;2024-03-08T12:18:51;2.47;;;1.55;;
42134;SDS011;28312;43.460;11.810;2024-03-08T12:22:56;3.50;;;2.00;;
42134;SDS011;28312;43.460;11.810;2024-03-08T12:27:01;3.58;;;2.33;;
42134;SDS011;28312;43.460;11.810;2024-03-08T12:31:21;3.25;;;1.92;;
42134;SDS011;28312;43.460;11.810;2024-03-08T12:35:29;2.92;;;1.90;;
42134;SDS011;28312;43.460;11.810;2024-03-08T12:39:33;3.17;;;1.80;;
42134;SDS011;28312;43.460;11.810;2024-03-08T12:43:37;2.90;;;1.35;;
42134;SDS011;28312;43.460;11.810;2024-03-08T12:47:41;1.98;;;1.10;;
42134;SDS011;28312;43.460;11.810;2024-03-08T12:51:44;3.25;;;1.35;;
42134;SDS011;28312;43.460;11.810;2024-03-08T12:55:48;1.80;;;1.00;;
42134;SDS011;28312;43.460;11.810;2024-03-08T12:59:52;1.83;;;0.93;;
42134;SDS011;28312;43.460;11.810;2024-03-08T13:03:56;2.78;;;1.35;;
42134;SDS011;28312;43.460;11.810;2024-03-08T13:08:02;2.23;;;1.13;;
42134;SDS011;28312;43.460;11.810;2024-03-08T13:12:06;2.85;;;1.42;;
42134;SDS011;28312;43.460;11.810;2024-03-08T13:16:11;2.22;;;1.25;;
42134;SDS011;28312;43.460;11.810;2024-03-08T13:20:17;4.20;;;1.50;;
42134;SDS011;28312;43.460;11.810;2024-03-08T13:24:33;4.33;;;1.60;;
42134;SDS011;28312;43.460;11.810;2024-03-08T13:28:37;2.83;;;1.25;;
42134;SDS011;28312;43.460;11.810;2024-03-08T13:32:40;3.03;;;1.27;;
42134;SDS011;28312;43.460;11.810;2024-03-08T13:36:46;2.70;;;1.60;;
42134;SDS011;28312;43.460;11.810;2024-03-08T13:40:51;2.97;;;1.58;;
42134;SDS011;28312;43.460;11.810;2024-03-08T13:44:55;1.73;;;1.10;;
42134;SDS011;28312;43.460;11.810;2024-03-08T13:49:03;2.20;;;1.00;;
42134;SDS011;28312;43.460;11.810;2024-03-08T13:53:12;2.15;;;1.25;;
42134;SDS011;28312;43.460;11.810;2024-03-08T13:57:15;1.52;;;1.00;;
42134;SDS011;28312;43.460;11.810;2024-03-08T14:01:19;2.92;;;1.23;;
42134;SDS011;28312;43.460;11.810;2024-03-08T14:05:23;1.98;;;0.95;;
42134;SDS011;28312;43.460;11.810;2024-03-08T14:09:29;2.10;;;1.10;;
42134;SDS011;28312;43.460;11.810;2024-03-08T14:17:40;2.03;;;0.98;;
42134;SDS011;28312;43.460;11.810;2024-03-08T14:21:44;2.20;;;1.00;;
42134;SDS011;28312;43.460;11.810;2024-03-08T14:25:49;2.20;;;1.10;;
42134;SDS011;28312;43.460;11.810;2024-03-08T14:29:57;3.88;;;2.00;;
42134;SDS011;28312;43.460;11.810;2024-03-08T14:34:01;2.72;;;1.77;;
42134;SDS011;28312;43.460;11.810;2024-03-08T14:38:06;2.67;;;1.20;;
42134;SDS011;28312;43.460;11.810;2024-03-08T14:42:11;1.98;;;1.10;;
42134;SDS011;28312;43.460;11.810;2024-03-08T14:46:17;2.30;;;1.30;;
42134;SDS011;28312;43.460;11.810;2024-03-08T14:50:24;2.83;;;1.70;;
42134;SDS011;28312;43.460;11.810;2024-03-08T14:54:28;4.15;;;1.30;;
42134;SDS011;28312;43.460;11.810;2024-03-08T14:58:31;4.55;;;1.33;;
42134;SDS011;28312;43.460;11.810;2024-03-08T15:02:35;2.80;;;1.10;;
42134;SDS011;28312;43.460;11.810;2024-03-08T15:06:42;2.60;;;1.50;;
42134;SDS011;28312;43.460;11.810;2024-03-08T15:10:46;2.55;;;1.60;;
42134;SDS011;28312;43.460;11.810;2024-03-08T15:15:01;1.98;;;1.05;;
42134;SDS011;28312;43.460;11.810;2024-03-08T15:19:08;4.47;;;1.17;;
42134;SDS011;28312;43.460;11.810;2024-03-08T15:23:14;3.40;;;1.50;;
42134;SDS011;28312;43.460;11.810;2024-03-08T15:27:19;2.35;;;1.27;;
42134;SDS011;28312;43.460;11.810;2024-03-08T15:31:23;4.47;;;1.52;;
42134;SDS011;28312;43.460;11.810;2024-03-08T15:35:30;1.85;;;1.25;;
42134;SDS011;28312;43.460;11.810;2024-03-08T15:39:36;4.60;;;2.60;;
42134;SDS011;28312;43.460;11.810;2024-03-08T15:43:41;2.08;;;1.40;;
42134;SDS011;28312;43.460;11.810;2024-03-08T15:47:45;5.13;;;1.70;;
42134;SDS011;28312;43.460;11.810;2024-03-08T15:51:49;2.38;;;0.93;;
42134;SDS011;28312;43.460;11.810;2024-03-08T15:55:52;2.58;;;1.38;;
42134;SDS011;28312;43.460;11.810;2024-03-08T15:59:56;3.70;;;1.58;;
42134;SDS011;28312;43.460;11.810;2024-03-08T16:08:07;2.35;;;1.23;;
42134;SDS011;28312;43.460;11.810;2024-03-08T16:12:37;2.90;;;1.63;;
42134;SDS011;28312;43.460;11.810;2024-03-08T16:16:42;3.25;;;1.40;;
42134;SDS011;28312;43.460;11.810;2024-03-08T16:20:49;2.70;;;1.48;;
42134;SDS011;28312;43.460;11.810;2024-03-08T16:24:54;3.28;;;2.00;;
42134;SDS011;28312;43.460;11.810;2024-03-08T16:28:58;3.15;;;2.00;;
42134;SDS011;28312;43.460;11.810;2024-03-08T16:33:02;5.32;;;2.42;;
42134;SDS011;28312;43.460;11.810;2024-03-08T16:37:08;4.20;;;2.13;;
42134;SDS011;28312;43.460;11.810;2024-03-08T16:41:13;4.78;;;2.60;;
42134;SDS011;28312;43.460;11.810;2024-03-08T16:45:18;3.45;;;2.05;;
42134;SDS011;28312;43.460;11.810;2024-03-08T16:49:24;4.38;;;2.72;;
42134;SDS011;28312;43.460;11.810;2024-03-08T16:53:28;6.93;;;2.67;;
42134;SDS011;28312;43.460;11.810;2024-03-08T16:57:33;8.52;;;4.82;;
42134;SDS011;28312;43.460;11.810;2024-03-08T17:01:37;5.55;;;3.72;;
42134;SDS011;28312;43.460;11.810;2024-03-08T17:05:42;5.60;;;4.10;;
42134;SDS011;28312;43.460;11.810;2024-03-08T17:09:51;13.25;;;6.32;;
42134;SDS011;28312;43.460;11.810;2024-03-08T17:13:54;7.55;;;5.55;;
42134;SDS011;28312;43.460;11.810;2024-03-08T17:17:59;7.18;;;4.32;;
42134;SDS011;28312;43.460;11.810;2024-03-08T17:22:09;9.18;;;5.63;;
42134;SDS011;28312;43.460;11.810;2024-03-08T17:26:14;10.13;;;5.15;;
42134;SDS011;28312;43.460;11.810;2024-03-08T17:30:22;6.18;;;4.07;;
42134;SDS011;28312;43.460;11.810;2024-03-08T17:34:26;5.50;;;3.47;;
42134;SDS011;28312;43.460;11.810;2024-03-08T17:38:30;5.18;;;3.20;;
42134;SDS011;28312;43.460;11.810;2024-03-08T17:42:34;7.63;;;4.13;;
42134;SDS011;28312;43.460;11.810;2024-03-08T17:46:37;4.47;;;2.80;;
42134;SDS011;28312;43.460;11.810;2024-03-08T17:50:42;6.15;;;2.92;;
42134;SDS011;28312;43.460;11.810;2024-03-08T17:54:46;3.08;;;2.20;;
42134;SDS011;28312;43.460;11.810;2024-03-08T17:58:49;4.15;;;2.40;;
42134;SDS011;28312;43.460;11.810;2024-03-08T18:02:54;5.70;;;3.65;;
42134;SDS011;28312;43.460;11.810;2024-03-08T18:06:59;3.55;;;2.50;;
42134;SDS011;28312;43.460;11.810;2024-03-08T18:11:03;7.10;;;3.72;;
42134;SDS011;28312;43.460;11.810;2024-03-08T18:15:07;5.75;;;3.45;;
42134;SDS011;28312;43.460;11.810;2024-03-08T18:19:13;5.10;;;3.45;;
42134;SDS011;28312;43.460;11.810;2024-03-08T18:23:22;4.63;;;2.20;;
42134;SDS011;28312;43.460;11.810;2024-03-08T18:27:25;3.22;;;2.25;;
42134;SDS011;28312;43.460;11.810;2024-03-08T18:31:31;3.65;;;2.47;;
42134;SDS011;28312;43.460;11.810;2024-03-08T18:35:35;3.22;;;1.80;;
42134;SDS011;28312;43.460;11.810;2024-03-08T18:39:41;3.42;;;2.38;;
42134;SDS011;28312;43.460;11.810;2024-03-08T18:43:46;6.57;;;3.15;;
42134;SDS011;28312;43.460;11.810;2024-03-08T18:47:52;6.93;;;3.43;;
42134;SDS011;28312;43.460;11.810;2024-03-08T18:51:58;2.90;;;2.00;;
42134;SDS011;28312;43.460;11.810;2024-03-08T18:56:02;5.28;;;2.67;;
42134;SDS011;28312;43.460;11.810;2024-03-08T19:00:07;3.45;;;2.45;;
42134;SDS011;28312;43.460;11.810;2024-03-08T19:04:20;6.22;;;3.90;;
42134;SDS011;28312;43.460;11.810;2024-03-08T19:08:26;4.03;;;2.75;;
42134;SDS011;28312;43.460;11.810;2024-03-08T19:12:29;28.55;;;15.68;;
42134;SDS011;28312;43.460;11.810;2024-03-08T19:16:36;15.48;;;8.55;;
42134;SDS011;28312;43.460;11.810;2024-03-08T19:20:43;6.63;;;4.07;;
42134;SDS011;28312;43.460;11.810;2024-03-08T19:24:47;4.25;;;3.47;;
42134;SDS011;28312;43.460;11.810;2024-03-08T19:28:51;4.93;;;3.70;;
42134;SDS011;28312;43.460;11.810;2024-03-08T19:32:55;4.90;;;3.05;;
42134;SDS011;28312;43.460;11.810;2024-03-08T19:36:59;9.43;;;5.72;;
42134;SDS011;28312;43.460;11.810;2024-03-08T19:41:03;5.53;;;3.83;;
42134;SDS011;28312;43.460;11.810;2024-03-08T19:45:08;5.60;;;3.90;;
42134;SDS011;28312;43.460;11.810;2024-03-08T19:49:13;11.57;;;7.20;;
42134;SDS011;28312;43.460;11.810;2024-03-08T19:53:19;6.50;;;4.60;;
42134;SDS011;28312;43.460;11.810;2024-03-08T19:57:25;5.07;;;3.72;;
42134;SDS011;28312;43.460;11.810;2024-03-08T20:01:35;8.98;;;6.00;;
42134;SDS011;28312;43.460;11.810;2024-03-08T20:05:39;10.25;;;6.15;;
42134;SDS011;28312;43.460;11.810;2024-03-08T20:09:47;6.80;;;4.72;;
42134;SDS011;28312;43.460;11.810;2024-03-08T20:13:51;8.10;;;6.32;;
42134;SDS011;28312;43.460;11.810;2024-03-08T20:17:55;8.77;;;6.03;;
42134;SDS011;28312;43.460;11.810;2024-03-08T20:22:01;8.13;;;5.50;;
42134;SDS011;28312;43.460;11.810;2024-03-08T20:26:04;5.50;;;4.40;;
42134;SDS011;28312;43.460;11.810;2024-03-08T20:30:16;6.35;;;4.90;;
42134;SDS011;28312;43.460;11.810;2024-03-08T20:34:25;6.80;;;4.38;;
42134;SDS011;28312;43.460;11.810;2024-03-08T20:38:30;5.25;;;3.67;;
42134;SDS011;28312;43.460;11.810;2024-03-08T20:42:38;6.80;;;4.32;;
42134;SDS011;28312;43.460;11.810;2024-03-08T20:46:42;7.55;;;5.75;;
42134;SDS011;28312;43.460;11.810;2024-03-08T20:50:51;7.10;;;4.63;;
42134;SDS011;28312;43.460;11.810;2024-03-08T20:54:58;6.03;;;4.10;;
42134;SDS011;28312;43.460;11.810;2024-03-08T20:59:02;5.25;;;3.40;;
42134;SDS011;28312;43.460;11.810;2024-03-08T21:03:09;4.00;;;2.28;;
42134;SDS011;28312;43.460;11.810;2024-03-08T21:07:17;3.65;;;2.20;;
42134;SDS011;28312;43.460;11.810;2024-03-08T21:11:21;8.68;;;7.38;;
42134;SDS011;28312;43.460;11.810;2024-03-08T21:15:30;3.40;;;2.35;;
42134;SDS011;28312;43.460;11.810;2024-03-08T21:19:36;4.38;;;2.88;;
42134;SDS011;28312;43.460;11.810;2024-03-08T21:23:44;3.22;;;2.47;;
42134;SDS011;28312;43.460;11.810;2024-03-08T21:27:48;3.60;;;2.22;;
42134;SDS011;28312;43.460;11.810;2024-03-08T21:31:52;3.88;;;2.53;;
42134;SDS011;28312;43.460;11.810;2024-03-08T21:35:56;4.07;;;3.05;;
42134;SDS011;28312;43.460;11.810;2024-03-08T21:44:13;6.38;;;5.35;;
42134;SDS011;28312;43.460;11.810;2024-03-08T21:48:18;6.65;;;4.25;;
42134;SDS011;28312;43.460;11.810;2024-03-08T21:52:21;11.52;;;7.95;;
42134;SDS011;28312;43.460;11.810;2024-03-08T21:56:26;9.85;;;8.27;;
42134;SDS011;28312;43.460;11.810;2024-03-08T22:00:29;11.82;;;10.38;;
42134;SDS011;28312;43.460;11.810;2024-03-08T22:04:35;7.78;;;6.03;;
42134;SDS011;28312;43.460;11.810;2024-03-08T22:08:41;6.97;;;5.60;;
42134;SDS011;28312;43.460;11.810;2024-03-08T22:12:47;12.63;;;9.20;;
42134;SDS011;28312;43.460;11.810;2024-03-08T22:16:52;4.70;;;3.65;;
42134;SDS011;28312;43.460;11.810;2024-03-08T22:20:57;4.07;;;3.15;;
42134;SDS011;28312;43.460;11.810;2024-03-08T22:25:03;5.57;;;3.63;;
42134;SDS011;28312;43.460;11.810;2024-03-08T22:29:09;4.20;;;2.90;;
42134;SDS011;28312;43.460;11.810;2024-03-08T22:33:14;6.25;;;3.63;;
42134;SDS011;28312;43.460;11.810;2024-03-08T22:37:18;3.67;;;2.75;;
42134;SDS011;28312;43.460;11.810;2024-03-08T22:41:26;3.10;;;2.70;;
42134;SDS011;28312;43.460;11.810;2024-03-08T22:45:32;3.95;;;3.35;;
42134;SDS011;28312;43.460;11.810;2024-03-08T22:49:36;5.80;;;4.05;;
42134;SDS011;28312;43.460;11.810;2024-03-08T22:53:41;4.50;;;3.30;;
42134;SDS011;28312;43.460;11.810;2024-03-08T22:57:47;5.93;;;4.13;;
42134;SDS011;28312;43.460;11.810;2024-03-08T23:01:54;4.47;;;3.15;;
42134;SDS011;28312;43.460;11.810;2024-03-08T23:05:58;3.63;;;2.67;;
42134;SDS011;28312;43.460;11.810;2024-03-08T23:10:04;4.32;;;2.70;;
42134;SDS011;28312;43.460;11.810;2024-03-08T23:14:12;4.38;;;2.50;;
42134;SDS011;28312;43.460;11.810;2024-03-08T23:18:15;3.70;;;2.40;;
42134;SDS011;28312;43.460;11.810;2024-03-08T23:22:21;4.53;;;2.60;;
42134;SDS011;28312;43.460;11.810;2024-03-08T23:26:26;2.92;;;2.15;;
42134;SDS011;28312;43.460;11.810;2024-03-08T23:30:29;4.35;;;2.67;;
42134;SDS011;28312;43.460;11.810;2024-03-08T23:34:35;3.03;;;2.27;;
42134;SDS011;28312;43.460;11.810;2024-03-08T23:38:40;4.70;;;2.25;;
42134;SDS011;28312;43.460;11.810;2024-03-08T23:42:45;8.98;;;3.90;;
42134;SDS011;28312;43.460;11.810;2024-03-08T23:46:51;3.00;;;2.13;;
42134;SDS011;28312;43.460;11.810;2024-03-08T23:50:55;3.17;;;2.08;;
42134;SDS011;28312;43.460;11.810;2024-03-08T23:54:58;2.95;;;2.22;;
42134;SDS011;28312;43.460;11.810;2024-03-08T23:59:02;3.08;;;2.17;;
